createdAt,value
2023-05-07T00:00:37.866Z,50.05
2023-05-07T00:03:05.081Z,50.18
2023-05-07T00:05:32.316Z,50.44
2023-05-07T00:07:59.888Z,49.71
2023-05-07T00:10:27.310Z,49.55
2023-05-07T00:12:54.546Z,49.87
2023-05-07T00:15:22.089Z,49.88
2023-05-07T00:17:49.355Z,49.66
2023-05-07T00:20:17.003Z,50.34
2023-05-07T00:22:44.262Z,50.40
2023-05-07T00:25:11.503Z,50.19
2023-05-07T00:27:38.726Z,50.36
2023-05-07T00:30:07.329Z,50.20
2023-05-07T00:32:34.536Z,50.17
2023-05-07T00:35:02.080Z,49.68
2023-05-07T00:37:29.470Z,49.87
2023-05-07T00:39:56.617Z,49.32
2023-05-07T00:42:23.917Z,49.27
2023-05-07T00:44:51.332Z,49.45
2023-05-07T00:47:18.761Z,49.74
2023-05-07T00:49:47.006Z,49.52
2023-05-07T00:52:18.405Z,49.45
2023-05-07T00:54:46.083Z,49.27
2023-05-07T00:57:13.127Z,49.35
2023-05-07T00:59:41.910Z,49.31
2023-05-07T01:02:09.427Z,49.20
2023-05-07T01:04:36.854Z,49.16
2023-05-07T01:07:05.570Z,49.32
2023-05-07T01:09:33.374Z,49.19
2023-05-07T01:14:29.136Z,49.12
2023-05-07T01:16:57.006Z,49.05
2023-05-07T01:19:24.921Z,49.17
2023-05-07T01:21:57.351Z,48.88
2023-05-07T01:24:25.136Z,49.32
2023-05-07T01:26:52.320Z,49.16
2023-05-07T01:29:19.878Z,48.70
2023-05-07T01:31:48.980Z,48.91
2023-05-07T01:34:18.637Z,49.12
2023-05-07T01:36:47.374Z,49.09
2023-05-07T01:39:15.468Z,49.20
2023-05-07T01:41:44.345Z,49.28
2023-05-07T01:44:14.929Z,49.23
2023-05-07T01:46:42.666Z,49.31
2023-05-07T01:49:10.686Z,49.23
2023-05-07T01:51:38.143Z,49.25
2023-05-07T01:54:06.534Z,49.33
2023-05-07T01:56:33.946Z,49.19
2023-05-07T01:59:01.977Z,49.50
2023-05-07T02:01:29.767Z,49.51
2023-05-07T02:03:57.786Z,49.82
2023-05-07T02:06:25.202Z,49.54
2023-05-07T02:08:56.703Z,49.40
2023-05-07T02:11:24.086Z,49.16
2023-05-07T02:13:51.410Z,49.18
2023-05-07T02:16:18.770Z,49.21
2023-05-07T02:18:46.465Z,48.91
2023-05-07T02:21:13.554Z,49.05
2023-05-07T02:23:40.982Z,49.04
2023-05-07T02:26:08.352Z,48.62
2023-05-07T02:28:38.564Z,48.70
2023-05-07T02:31:07.249Z,48.73
2023-05-07T02:33:36.433Z,48.53
2023-05-07T02:36:10.469Z,48.56
2023-05-07T02:38:42.681Z,48.59
2023-05-07T02:41:10.375Z,48.70
2023-05-07T02:43:37.794Z,48.38
2023-05-07T02:46:10.157Z,48.54
2023-05-07T02:48:40.175Z,48.57
2023-05-07T02:51:08.045Z,48.40
2023-05-07T02:53:35.912Z,48.60
2023-05-07T02:56:04.220Z,48.51
2023-05-07T02:58:31.823Z,48.54
2023-05-07T03:01:00.388Z,48.52
2023-05-07T03:03:38.541Z,48.64
2023-05-07T03:06:06.204Z,48.47
2023-05-07T03:08:33.933Z,48.35
2023-05-07T03:11:01.515Z,48.72
2023-05-07T03:13:28.960Z,48.92
2023-05-07T03:15:56.316Z,48.81
2023-05-07T03:18:23.594Z,48.68
2023-05-07T03:20:51.482Z,48.76
2023-05-07T03:23:19.221Z,48.77
2023-05-07T03:25:46.368Z,48.78
2023-05-07T03:28:13.897Z,49.21
2023-05-07T03:30:46.575Z,48.90
2023-05-07T03:33:13.911Z,48.87
2023-05-07T03:35:41.584Z,49.22
2023-05-07T03:38:08.790Z,49.14
2023-05-07T03:40:37.260Z,49.31
2023-05-07T03:43:04.678Z,49.06
2023-05-07T03:45:32.411Z,49.64
2023-05-07T03:48:13.264Z,49.30
2023-05-07T03:50:41.010Z,49.11
2023-05-07T03:53:08.272Z,49.12
2023-05-07T03:55:39.871Z,49.38
2023-05-07T03:58:07.142Z,49.59
2023-05-07T04:00:39.376Z,49.78
2023-05-07T04:03:13.968Z,49.56
2023-05-07T04:05:41.492Z,49.69
2023-05-07T04:08:08.653Z,49.63
2023-05-07T04:10:39.325Z,49.77
2023-05-07T04:13:09.658Z,49.76
2023-05-07T04:15:37.597Z,49.57
2023-05-07T04:18:06.878Z,49.48
2023-05-07T04:20:37.705Z,49.04
2023-05-07T04:23:06.465Z,49.47
2023-05-07T04:25:34.202Z,49.25
2023-05-07T04:28:07.533Z,48.88
2023-05-07T04:30:34.935Z,49.05
2023-05-07T04:35:30.723Z,49.15
2023-05-07T04:37:58.478Z,49.19
2023-05-07T04:40:25.838Z,49.21
2023-05-07T04:42:54.469Z,49.15
2023-05-07T04:45:22.467Z,49.30
2023-05-07T04:47:51.087Z,49.08
2023-05-07T04:50:20.648Z,48.87
2023-05-07T04:52:48.233Z,48.97
2023-05-07T04:55:16.031Z,49.07
2023-05-07T04:57:43.540Z,48.76
2023-05-07T05:00:15.323Z,48.67
2023-05-07T05:02:42.802Z,48.72
2023-05-07T05:05:11.037Z,48.63
2023-05-07T05:07:38.252Z,48.48
2023-05-07T05:10:07.050Z,48.38
2023-05-07T05:12:35.502Z,48.46
2023-05-07T05:15:03.274Z,48.66
2023-05-07T05:17:30.354Z,48.60
2023-05-07T05:19:57.575Z,48.89
2023-05-07T05:22:24.958Z,48.41
2023-05-07T05:24:52.401Z,47.94
2023-05-07T05:27:19.708Z,47.49
2023-05-07T05:29:46.833Z,47.02
2023-05-07T05:32:14.635Z,46.59
2023-05-07T05:34:41.972Z,46.06
2023-05-07T05:37:09.360Z,45.83
2023-05-07T05:39:36.827Z,45.52
2023-05-07T05:42:04.506Z,44.93
2023-05-07T05:44:34.107Z,44.64
2023-05-07T05:47:01.598Z,43.76
2023-05-07T05:49:29.134Z,43.44
2023-05-07T05:51:57.106Z,43.43
2023-05-07T05:54:25.434Z,43.35
2023-05-07T05:56:53.161Z,42.38
2023-05-07T05:59:20.356Z,42.85
2023-05-07T06:01:48.152Z,42.68
2023-05-07T06:04:15.611Z,42.50
2023-05-07T06:06:42.909Z,41.76
2023-05-07T06:09:11.196Z,41.98
2023-05-07T06:11:42.212Z,41.18
2023-05-07T06:14:10.365Z,40.98
2023-05-07T06:16:39.331Z,40.88
2023-05-07T06:19:07.447Z,40.15
2023-05-07T06:21:34.647Z,39.34
2023-05-07T06:24:02.130Z,39.42
2023-05-07T06:26:29.155Z,39.67
2023-05-07T06:28:56.422Z,39.36
2023-05-07T06:31:24.464Z,38.57
2023-05-07T06:33:57.859Z,38.86
2023-05-07T06:36:27.982Z,39.01
2023-05-07T06:38:56.829Z,38.44
2023-05-07T06:41:24.332Z,38.92
2023-05-07T06:43:52.104Z,39.10
2023-05-07T06:46:30.968Z,38.44
2023-05-07T06:48:58.584Z,38.49
2023-05-07T06:51:27.995Z,37.80
2023-05-07T06:53:56.157Z,38.23
2023-05-07T06:56:24.067Z,37.99
2023-05-07T06:58:51.232Z,38.00
2023-05-07T07:01:19.003Z,38.09
2023-05-07T07:03:46.249Z,37.92
2023-05-07T07:06:13.623Z,38.52
2023-05-07T07:08:41.326Z,37.76
2023-05-07T07:11:10.026Z,37.51
2023-05-07T07:13:37.579Z,37.39
2023-05-07T07:16:05.266Z,37.54
2023-05-07T07:18:32.880Z,37.07
2023-05-07T07:21:00.476Z,36.80
2023-05-07T07:23:27.840Z,36.20
2023-05-07T07:25:55.065Z,35.93
2023-05-07T07:28:23.586Z,35.78
2023-05-07T07:30:51.241Z,35.66
2023-05-07T07:33:18.690Z,35.56
2023-05-07T07:35:46.099Z,35.01
2023-05-07T07:38:13.840Z,35.81
2023-05-07T07:40:41.121Z,35.78
2023-05-07T07:43:08.703Z,35.48
2023-05-07T07:45:36.150Z,34.84
2023-05-07T07:48:03.675Z,34.23
2023-05-07T07:50:43.351Z,32.74
2023-05-07T07:53:13.474Z,33.66
2023-05-07T07:55:41.648Z,32.12
2023-05-07T07:58:09.642Z,32.29
2023-05-07T08:00:37.868Z,32.22
2023-05-07T08:03:06.416Z,31.79
2023-05-07T08:05:39.603Z,32.01
2023-05-07T08:08:07.785Z,31.91
2023-05-07T08:10:40.334Z,32.07
2023-05-07T08:13:17.085Z,31.66
2023-05-07T08:15:44.179Z,31.93
2023-05-07T08:18:11.648Z,31.83
2023-05-07T08:20:40.904Z,32.01
2023-05-07T08:23:10.134Z,31.84
2023-05-07T08:25:38.768Z,32.51
2023-05-07T08:28:07.925Z,33.07
